createdAt,value
2023-05-10T00:04:37.066Z,13.50
2023-05-10T00:09:38.783Z,13.46
2023-05-10T00:14:40.357Z,13.48
2023-05-10T00:19:43.307Z,13.52
2023-05-10T00:24:44.867Z,13.38
2023-05-10T00:29:48.779Z,13.52
2023-05-10T00:35:01.449Z,13.55
2023-05-10T00:40:03.119Z,13.61
2023-05-10T00:45:09.565Z,13.46
2023-05-10T00:50:12.645Z,13.59
2023-05-10T00:55:15.950Z,13.63
2023-05-10T01:00:18.546Z,13.47
2023-05-10T01:05:21.938Z,13.19
2023-05-10T01:10:23.867Z,12.64
2023-05-10T01:15:25.727Z,12.85
2023-05-10T01:20:36.607Z,12.59
2023-05-10T01:26:16.554Z,12.65
2023-05-10T01:31:28.827Z,12.42
2023-05-10T01:36:40.950Z,12.26
2023-05-10T01:41:49.006Z,12.22
2023-05-10T01:46:59.065Z,12.06
2023-05-10T01:52:09.782Z,11.90
2023-05-10T01:57:14.654Z,11.31
2023-05-10T02:02:18.255Z,11.38
2023-05-10T02:07:22.721Z,11.31
2023-05-10T02:12:26.284Z,11.03
2023-05-10T02:17:29.696Z,11.02
2023-05-10T02:22:37.292Z,11.30
2023-05-10T02:27:44.982Z,11.03
2023-05-10T02:32:47.232Z,10.94
2023-05-10T02:37:51.777Z,11.01
2023-05-10T02:42:59.604Z,11.26
2023-05-10T02:48:03.655Z,11.18
2023-05-10T02:53:12.536Z,11.01
2023-05-10T02:58:16.435Z,11.06
2023-05-10T03:03:17.976Z,11.10
2023-05-10T03:08:21.013Z,10.85
2023-05-10T03:13:32.941Z,10.92
2023-05-10T03:18:42.854Z,10.74
2023-05-10T03:23:51.454Z,10.74
2023-05-10T03:28:56.347Z,10.69
2023-05-10T03:33:57.887Z,10.76
2023-05-10T03:39:03.724Z,10.41
2023-05-10T03:44:05.360Z,10.47
2023-05-10T03:49:06.913Z,10.37
2023-05-10T03:54:09.993Z,10.43
2023-05-10T03:59:11.635Z,10.36
2023-05-10T04:09:30.113Z,10.16
2023-05-10T04:14:31.704Z,10.18
2023-05-10T04:19:33.954Z,10.45
2023-05-10T04:24:37.846Z,10.52
2023-05-10T04:29:41.805Z,10.70
2023-05-10T04:34:43.398Z,10.81
2023-05-10T04:39:46.462Z,10.68
2023-05-10T04:44:48.022Z,10.63
2023-05-10T04:49:49.678Z,10.89
2023-05-10T04:54:52.684Z,11.05
2023-05-10T04:59:54.303Z,10.86
2023-05-10T05:04:57.409Z,11.15
2023-05-10T05:10:03.875Z,11.12
2023-05-10T05:15:09.859Z,11.31
2023-05-10T05:20:12.089Z,11.33
2023-05-10T05:25:15.386Z,11.72
2023-05-10T05:30:25.830Z,11.85
2023-05-10T05:35:27.499Z,11.94
2023-05-10T05:40:30.604Z,11.86
2023-05-10T05:45:32.259Z,11.72
2023-05-10T05:50:33.897Z,11.60
2023-05-10T05:55:36.987Z,11.59
2023-05-10T06:00:38.572Z,11.68
2023-05-10T06:05:40.367Z,11.85
2023-05-10T06:10:43.500Z,11.92
2023-05-10T06:15:45.154Z,11.97
2023-05-10T06:20:46.839Z,11.90
2023-05-10T06:25:49.880Z,12.18
2023-05-10T06:30:54.437Z,12.10
2023-05-10T06:35:56.065Z,11.99
2023-05-10T06:41:23.995Z,12.40
2023-05-10T06:46:26.348Z,12.63
2023-05-10T06:51:30.928Z,12.80
2023-05-10T06:56:37.386Z,12.89
2023-05-10T07:01:39.048Z,12.21
2023-05-10T07:06:42.985Z,12.04
2023-05-10T07:11:45.983Z,12.00
2023-05-10T07:16:47.627Z,11.97
2023-05-10T07:21:51.269Z,12.00
2023-05-10T07:26:54.259Z,12.07
2023-05-10T07:31:58.588Z,11.82
2023-05-10T07:37:00.968Z,12.12
2023-05-10T07:42:04.040Z,11.91
2023-05-10T07:47:08.456Z,11.95
2023-05-10T07:52:11.053Z,12.22
2023-05-10T07:57:14.098Z,12.62
2023-05-10T08:02:18.457Z,12.38
2023-05-10T08:07:20.328Z,12.65
2023-05-10T08:12:23.351Z,12.61
2023-05-10T08:17:25.031Z,12.69
2023-05-10T08:22:26.605Z,13.13
2023-05-10T08:27:29.523Z,13.25
2023-05-10T08:32:31.144Z,13.64
2023-05-10T08:37:32.819Z,13.37
2023-05-10T08:42:41.229Z,13.33
2023-05-10T08:47:44.906Z,13.27
2023-05-10T08:52:49.251Z,13.51
2023-05-10T08:57:54.565Z,13.39
2023-05-10T09:02:56.663Z,13.96
2023-05-10T09:14:02.893Z,14.51
2023-05-10T09:19:04.658Z,14.19
2023-05-10T09:24:07.413Z,14.60
2023-05-10T09:29:10.380Z,14.19
2023-05-10T09:34:12.017Z,13.65
2023-05-10T09:39:13.698Z,13.51
2023-05-10T09:44:20.144Z,13.61
2023-05-10T09:49:31.007Z,13.65
2023-05-10T09:54:35.299Z,13.79
2023-05-10T09:59:46.075Z,13.86
2023-05-10T10:04:50.737Z,13.95
2023-05-10T10:09:52.816Z,13.42
2023-05-10T10:14:58.982Z,13.41
2023-05-10T10:20:02.984Z,13.04
2023-05-10T10:25:07.064Z,13.51
2023-05-10T10:30:28.310Z,13.70
2023-05-10T10:35:31.353Z,13.90
2023-05-10T10:40:35.088Z,13.94
2023-05-10T10:45:42.201Z,14.48
2023-05-10T10:50:49.374Z,14.19
2023-05-10T10:56:08.254Z,14.54
2023-05-10T11:01:18.214Z,14.06
2023-05-10T11:06:32.359Z,14.31
2023-05-10T11:11:35.894Z,14.21
2023-05-10T11:16:45.416Z,14.12
2023-05-10T11:21:49.277Z,14.45
2023-05-10T11:26:51.792Z,13.44
2023-05-10T11:31:59.312Z,13.68
2023-05-10T11:37:01.332Z,12.86
2023-05-10T11:42:05.743Z,12.46
2023-05-10T11:47:10.956Z,12.48
2023-05-10T11:52:12.603Z,12.80
2023-05-10T11:57:14.195Z,12.92
2023-05-10T12:02:21.859Z,13.36
2023-05-10T12:07:25.938Z,13.60
2023-05-10T12:12:29.867Z,13.84
2023-05-10T12:17:33.146Z,13.83
2023-05-10T12:22:34.939Z,13.81
2023-05-10T12:27:36.675Z,13.91
2023-05-10T12:32:45.341Z,14.12
2023-05-10T12:37:47.007Z,14.41
2023-05-10T12:42:48.694Z,14.57
2023-05-10T12:47:51.639Z,14.34
2023-05-10T12:52:53.322Z,13.70
2023-05-10T12:57:55.026Z,11.38
2023-05-10T13:02:58.068Z,11.05
2023-05-10T13:08:00.002Z,11.22
2023-05-10T13:13:04.171Z,10.94
2023-05-10T13:18:07.207Z,10.93
2023-05-10T13:23:08.877Z,10.96
2023-05-10T13:28:10.564Z,10.90
2023-05-10T13:33:13.586Z,11.07
2023-05-10T13:38:15.253Z,11.10
2023-05-10T13:43:16.820Z,11.35
2023-05-10T13:48:21.830Z,11.16
2023-05-10T13:53:23.728Z,11.48
2023-05-10T13:58:25.486Z,11.63
2023-05-10T14:03:28.717Z,11.80
2023-05-10T14:08:30.499Z,11.96
2023-05-10T14:13:34.229Z,12.01
2023-05-10T14:18:39.983Z,12.62
2023-05-10T14:23:44.016Z,13.03
2023-05-10T14:28:45.936Z,13.45
2023-05-10T14:39:57.461Z,13.10
2023-05-10T14:44:59.080Z,12.91
2023-05-10T14:50:00.963Z,12.86
2023-05-10T14:55:07.266Z,12.49
2023-05-10T15:00:11.785Z,12.68
2023-05-10T15:05:14.184Z,12.69
2023-05-10T15:10:19.413Z,12.94
2023-05-10T15:15:23.721Z,13.00
2023-05-10T15:20:25.308Z,13.04
2023-05-10T15:25:28.432Z,12.94
2023-05-10T15:30:30.120Z,12.86
2023-05-10T15:35:31.905Z,12.94
2023-05-10T15:40:34.915Z,13.06
2023-05-10T15:45:37.765Z,12.92
2023-05-10T15:50:39.454Z,12.78
2023-05-10T15:55:42.376Z,13.05
2023-05-10T16:00:51.096Z,13.36
2023-05-10T16:05:52.900Z,13.30
2023-05-10T16:10:57.974Z,12.93
2023-05-10T16:16:00.965Z,13.44
2023-05-10T16:21:06.437Z,13.13
2023-05-10T16:26:09.493Z,13.38
2023-05-10T16:31:11.065Z,13.03
2023-05-10T16:36:12.838Z,13.03
2023-05-10T16:41:45.927Z,13.20
2023-05-10T16:46:47.722Z,13.10
2023-05-10T16:51:49.394Z,13.01
2023-05-10T16:56:52.382Z,12.87
2023-05-10T17:01:54.774Z,13.18
2023-05-10T17:06:56.504Z,13.01
2023-05-10T17:11:59.560Z,12.60
2023-05-10T17:17:01.380Z,12.66
2023-05-10T17:22:03.075Z,12.67
2023-05-10T17:27:13.610Z,12.62
2023-05-10T17:38:18.545Z,12.63
2023-05-10T17:43:21.540Z,12.54
2023-05-10T17:48:23.094Z,12.43
2023-05-10T17:53:31.644Z,12.41
2023-05-10T17:58:37.674Z,12.20
2023-05-10T18:03:41.688Z,12.25
2023-05-10T18:08:43.290Z,12.13
2023-05-10T18:13:48.471Z,12.27
2023-05-10T18:18:50.111Z,11.91
2023-05-10T18:23:54.194Z,11.86
2023-05-10T18:28:59.113Z,11.79
2023-05-10T18:34:01.772Z,11.87
2023-05-10T18:39:03.649Z,11.76
2023-05-10T18:44:08.905Z,11.87
2023-05-10T18:49:12.850Z,11.86
2023-05-10T18:54:14.718Z,11.79
2023-05-10T18:59:17.757Z,12.12
2023-05-10T19:04:21.863Z,12.04
2023-05-10T19:09:26.733Z,12.09
2023-05-10T19:14:32.313Z,11.79
2023-05-10T19:19:34.631Z,11.88
2023-05-10T19:24:38.706Z,11.81
2023-05-10T19:29:41.853Z,11.77
2023-05-10T19:34:43.760Z,11.96
2023-05-10T19:39:45.579Z,12.04
2023-05-10T19:44:48.554Z,11.91
2023-05-10T19:49:50.250Z,11.76
2023-05-10T19:54:51.935Z,11.75
2023-05-10T19:59:55.132Z,11.94
2023-05-10T20:16:18.426Z,11.92
2023-05-10T20:21:20.145Z,11.92
2023-05-10T20:26:21.729Z,12.03
2023-05-10T20:31:24.896Z,11.90
2023-05-10T20:36:27.102Z,11.92
2023-05-10T20:41:28.791Z,11.70
2023-05-10T20:46:31.998Z,11.54
2023-05-10T20:51:33.662Z,11.41
2023-05-10T20:56:36.674Z,11.44
2023-05-10T21:01:39.728Z,11.67
2023-05-10T21:06:42.039Z,11.76
2023-05-10T21:11:58.679Z,11.72
2023-05-10T21:17:01.858Z,11.49
2023-05-10T21:22:03.489Z,11.21
2023-05-10T21:27:05.078Z,11.61
2023-05-10T21:32:08.133Z,11.59
2023-05-10T21:37:10.976Z,11.62
2023-05-10T21:42:12.617Z,11.60
2023-05-10T21:47:15.627Z,11.61
2023-05-10T21:52:17.174Z,11.41
2023-05-10T21:57:18.856Z,11.28
2023-05-10T22:02:22.048Z,11.26
2023-05-10T22:07:23.757Z,11.28
2023-05-10T22:12:32.566Z,11.23
2023-05-10T22:17:35.671Z,11.16
2023-05-10T22:22:44.595Z,11.25
2023-05-10T22:27:48.487Z,11.07
2023-05-10T22:32:56.703Z,11.09
2023-05-10T22:37:58.354Z,11.13
2023-05-10T22:43:00.012Z,11.09
2023-05-10T22:48:07.030Z,11.05
2023-05-10T22:53:08.785Z,11.10
2023-05-10T22:58:10.792Z,11.08
2023-05-10T23:03:13.843Z,11.03
2023-05-10T23:08:17.789Z,11.05
2023-05-10T23:13:19.447Z,10.76
2023-05-10T23:18:22.525Z,10.45
2023-05-10T23:23:24.293Z,10.41
2023-05-10T23:28:26.023Z,10.27
2023-05-10T23:33:29.914Z,10.15
2023-05-10T23:38:33.884Z,10.48
2023-05-10T23:43:36.621Z,10.69
2023-05-10T23:48:42.028Z,10.70
2023-05-10T23:53:43.698Z,10.76
2023-05-10T23:58:45.382Z,10.67
